sensor_id;sensor_type;location;lat;lon;timestamp;P1;durP1;ratioP1;P2;durP2;ratioP2
2299;SDS011;1158;48.750;9.078;2024-01-16T00:00:28;12.70;;;5.03;;
2299;SDS011;1158;48.750;9.078;2024-01-16T00:02:55;6.43;;;3.73;;
2299;SDS011;1158;48.750;9.078;2024-01-16T00:05:23;7.03;;;4.03;;
2299;SDS011;1158;48.750;9.078;2024-01-16T00:07:50;7.40;;;4.10;;
2299;SDS011;1158;48.750;9.078;2024-01-16T00:10:16;16.13;;;4.97;;
2299;SDS011;1158;48.750;9.078;2024-01-16T00:12:43;9.50;;;4.63;;
2299;SDS011;1158;48.750;9.078;2024-01-16T00:15:10;8.30;;;4.00;;
2299;SDS011;1158;48.750;9.078;2024-01-16T00:17:36;12.17;;;4.53;;
2299;SDS011;1158;48.750;9.078;2024-01-16T00:20:04;10.40;;;4.70;;
2299;SDS011;1158;48.750;9.078;2024-01-16T00:22:33;12.37;;;5.20;;
2299;SDS011;1158;48.750;9.078;2024-01-16T00:24:59;14.27;;;5.20;;
2299;SDS011;1158;48.750;9.078;2024-01-16T00:27:26;10.83;;;4.73;;
2299;SDS011;1158;48.750;9.078;2024-01-16T00:29:53;7.60;;;4.00;;
2299;SDS011;1158;48.750;9.078;2024-01-16T00:32:19;7.43;;;3.80;;
2299;SDS011;1158;48.750;9.078;2024-01-16T00:34:47;9.57;;;5.00;;
2299;SDS011;1158;48.750;9.078;2024-01-16T00:37:13;9.70;;;4.60;;
2299;SDS011;1158;48.750;9.078;2024-01-16T00:39:41;11.23;;;4.40;;
2299;SDS011;1158;48.750;9.078;2024-01-16T00:42:08;10.93;;;4.70;;
2299;SDS011;1158;48.750;9.078;2024-01-16T00:44:35;11.37;;;4.90;;
2299;SDS011;1158;48.750;9.078;2024-01-16T00:47:01;9.93;;;4.23;;
2299;SDS011;1158;48.750;9.078;2024-01-16T00:49:30;6.60;;;4.67;;
2299;SDS011;1158;48.750;9.078;2024-01-16T00:51:57;9.70;;;4.50;;
2299;SDS011;1158;48.750;9.078;2024-01-16T00:54:24;10.80;;;5.03;;
2299;SDS011;1158;48.750;9.078;2024-01-16T00:56:52;8.77;;;5.27;;
2299;SDS011;1158;48.750;9.078;2024-01-16T00:59:20;14.10;;;4.60;;
2299;SDS011;1158;48.750;9.078;2024-01-16T01:01:47;13.63;;;4.17;;
2299;SDS011;1158;48.750;9.078;2024-01-16T01:04:14;6.47;;;3.90;;
2299;SDS011;1158;48.750;9.078;2024-01-16T01:06:40;10.23;;;5.10;;
2299;SDS011;1158;48.750;9.078;2024-01-16T01:09:07;9.10;;;4.47;;
2299;SDS011;1158;48.750;9.078;2024-01-16T01:11:36;11.30;;;4.63;;
2299;SDS011;1158;48.750;9.078;2024-01-16T01:14:04;9.00;;;3.93;;
2299;SDS011;1158;48.750;9.078;2024-01-16T01:16:31;6.10;;;4.47;;
2299;SDS011;1158;48.750;9.078;2024-01-16T01:18:58;10.80;;;4.90;;
2299;SDS011;1158;48.750;9.078;2024-01-16T01:21:24;12.10;;;4.60;;
2299;SDS011;1158;48.750;9.078;2024-01-16T01:23:51;6.73;;;3.57;;
2299;SDS011;1158;48.750;9.078;2024-01-16T01:26:18;6.43;;;4.20;;
2299;SDS011;1158;48.750;9.078;2024-01-16T01:28:45;9.43;;;4.43;;
2299;SDS011;1158;48.750;9.078;2024-01-16T01:31:14;7.00;;;4.60;;
2299;SDS011;1158;48.750;9.078;2024-01-16T01:33:40;8.93;;;3.90;;
2299;SDS011;1158;48.750;9.078;2024-01-16T01:36:07;9.53;;;4.90;;
2299;SDS011;1158;48.750;9.078;2024-01-16T01:38:35;9.43;;;4.90;;
2299;SDS011;1158;48.750;9.078;2024-01-16T01:41:01;10.47;;;4.23;;
2299;SDS011;1158;48.750;9.078;2024-01-16T01:43:29;8.23;;;4.40;;
2299;SDS011;1158;48.750;9.078;2024-01-16T01:46:09;8.47;;;4.50;;
2299;SDS011;1158;48.750;9.078;2024-01-16T01:48:39;7.23;;;3.90;;
2299;SDS011;1158;48.750;9.078;2024-01-16T01:51:07;9.20;;;4.07;;
2299;SDS011;1158;48.750;9.078;2024-01-16T01:53:34;8.57;;;4.53;;
2299;SDS011;1158;48.750;9.078;2024-01-16T01:56:03;14.73;;;5.10;;
2299;SDS011;1158;48.750;9.078;2024-01-16T01:58:32;10.00;;;4.50;;
2299;SDS011;1158;48.750;9.078;2024-01-16T02:01:00;11.93;;;5.47;;
2299;SDS011;1158;48.750;9.078;2024-01-16T02:03:27;8.67;;;4.33;;
2299;SDS011;1158;48.750;9.078;2024-01-16T02:05:56;9.33;;;4.37;;
2299;SDS011;1158;48.750;9.078;2024-01-16T02:08:24;11.90;;;4.67;;
2299;SDS011;1158;48.750;9.078;2024-01-16T02:10:51;10.23;;;5.13;;
2299;SDS011;1158;48.750;9.078;2024-01-16T02:13:18;8.73;;;5.17;;
2299;SDS011;1158;48.750;9.078;2024-01-16T02:15:48;7.60;;;4.20;;
2299;SDS011;1158;48.750;9.078;2024-01-16T02:18:15;9.03;;;4.40;;
2299;SDS011;1158;48.750;9.078;2024-01-16T02:20:42;7.77;;;4.60;;
2299;SDS011;1158;48.750;9.078;2024-01-16T02:23:10;10.20;;;5.23;;
2299;SDS011;1158;48.750;9.078;2024-01-16T02:25:40;11.07;;;4.80;;
2299;SDS011;1158;48.750;9.078;2024-01-16T02:28:08;9.77;;;5.00;;
2299;SDS011;1158;48.750;9.078;2024-01-16T02:30:34;9.33;;;4.67;;
2299;SDS011;1158;48.750;9.078;2024-01-16T02:33:01;17.40;;;5.03;;
2299;SDS011;1158;48.750;9.078;2024-01-16T02:35:29;9.73;;;4.63;;
2299;SDS011;1158;48.750;9.078;2024-01-16T02:37:55;11.57;;;4.90;;
2299;SDS011;1158;48.750;9.078;2024-01-16T02:40:22;7.93;;;4.00;;
2299;SDS011;1158;48.750;9.078;2024-01-16T02:42:50;8.67;;;4.67;;
2299;SDS011;1158;48.750;9.078;2024-01-16T02:45:17;10.13;;;4.60;;
2299;SDS011;1158;48.750;9.078;2024-01-16T02:47:43;5.43;;;3.80;;
2299;SDS011;1158;48.750;9.078;2024-01-16T02:50:10;10.33;;;5.00;;
2299;SDS011;1158;48.750;9.078;2024-01-16T02:52:38;8.57;;;3.70;;
2299;SDS011;1158;48.750;9.078;2024-01-16T02:55:05;8.93;;;4.60;;
2299;SDS011;1158;48.750;9.078;2024-01-16T02:57:32;11.43;;;4.50;;
2299;SDS011;1158;48.750;9.078;2024-01-16T03:00:01;8.80;;;5.07;;
2299;SDS011;1158;48.750;9.078;2024-01-16T03:02:28;7.73;;;4.47;;
2299;SDS011;1158;48.750;9.078;2024-01-16T03:04:55;9.87;;;4.50;;
2299;SDS011;1158;48.750;9.078;2024-01-16T03:07:21;5.57;;;4.10;;
2299;SDS011;1158;48.750;9.078;2024-01-16T03:09:48;8.07;;;4.70;;
2299;SDS011;1158;48.750;9.078;2024-01-16T03:12:15;6.97;;;4.30;;
2299;SDS011;1158;48.750;9.078;2024-01-16T03:14:42;9.17;;;4.67;;
2299;SDS011;1158;48.750;9.078;2024-01-16T03:17:11;14.43;;;4.73;;
2299;SDS011;1158;48.750;9.078;2024-01-16T03:19:37;8.37;;;4.33;;
2299;SDS011;1158;48.750;9.078;2024-01-16T03:22:04;11.73;;;4.30;;
2299;SDS011;1158;48.750;9.078;2024-01-16T03:24:31;12.23;;;4.80;;
2299;SDS011;1158;48.750;9.078;2024-01-16T03:26:57;9.93;;;4.70;;
2299;SDS011;1158;48.750;9.078;2024-01-16T03:29:24;7.57;;;3.80;;
2299;SDS011;1158;48.750;9.078;2024-01-16T03:31:51;7.03;;;4.23;;
2299;SDS011;1158;48.750;9.078;2024-01-16T03:34:19;5.73;;;4.10;;
2299;SDS011;1158;48.750;9.078;2024-01-16T03:36:46;11.10;;;4.27;;
2299;SDS011;1158;48.750;9.078;2024-01-16T03:39:13;10.27;;;4.00;;
2299;SDS011;1158;48.750;9.078;2024-01-16T03:41:40;7.20;;;4.33;;
2299;SDS011;1158;48.750;9.078;2024-01-16T03:44:06;15.00;;;5.37;;
2299;SDS011;1158;48.750;9.078;2024-01-16T03:46:33;16.43;;;4.57;;
2299;SDS011;1158;48.750;9.078;2024-01-16T03:49:00;9.17;;;4.47;;
2299;SDS011;1158;48.750;9.078;2024-01-16T03:51:28;8.40;;;4.90;;
2299;SDS011;1158;48.750;9.078;2024-01-16T03:53:54;10.40;;;4.40;;
2299;SDS011;1158;48.750;9.078;2024-01-16T03:56:21;7.60;;;3.80;;
2299;SDS011;1158;48.750;9.078;2024-01-16T03:58:48;8.40;;;4.50;;
2299;SDS011;1158;48.750;9.078;2024-01-16T04:01:15;13.27;;;5.10;;
2299;SDS011;1158;48.750;9.078;2024-01-16T04:03:41;8.57;;;4.07;;
2299;SDS011;1158;48.750;9.078;2024-01-16T04:06:15;11.13;;;3.33;;
2299;SDS011;1158;48.750;9.078;2024-01-16T04:08:43;11.40;;;4.70;;
2299;SDS011;1158;48.750;9.078;2024-01-16T04:11:12;12.10;;;5.33;;
2299;SDS011;1158;48.750;9.078;2024-01-16T04:13:38;10.10;;;4.30;;
2299;SDS011;1158;48.750;9.078;2024-01-16T04:16:05;8.10;;;4.47;;
2299;SDS011;1158;48.750;9.078;2024-01-16T04:18:35;8.43;;;3.70;;
2299;SDS011;1158;48.750;9.078;2024-01-16T04:21:02;10.67;;;4.00;;
2299;SDS011;1158;48.750;9.078;2024-01-16T04:23:29;8.53;;;3.83;;
2299;SDS011;1158;48.750;9.078;2024-01-16T04:25:57;8.53;;;4.37;;
2299;SDS011;1158;48.750;9.078;2024-01-16T04:28:24;9.43;;;4.43;;
2299;SDS011;1158;48.750;9.078;2024-01-16T04:30:51;8.20;;;4.37;;
2299;SDS011;1158;48.750;9.078;2024-01-16T04:33:18;8.40;;;3.70;;
2299;SDS011;1158;48.750;9.078;2024-01-16T04:35:45;7.47;;;3.90;;
2299;SDS011;1158;48.750;9.078;2024-01-16T04:38:12;9.33;;;4.70;;
2299;SDS011;1158;48.750;9.078;2024-01-16T04:40:38;8.93;;;4.60;;
2299;SDS011;1158;48.750;9.078;2024-01-16T04:43:07;7.73;;;3.87;;
2299;SDS011;1158;48.750;9.078;2024-01-16T04:45:33;8.67;;;4.80;;
2299;SDS011;1158;48.750;9.078;2024-01-16T04:48:00;10.80;;;4.83;;
2299;SDS011;1158;48.750;9.078;2024-01-16T04:50:28;8.40;;;3.67;;
2299;SDS011;1158;48.750;9.078;2024-01-16T04:52:57;5.93;;;3.90;;
2299;SDS011;1158;48.750;9.078;2024-01-16T04:55:24;10.43;;;4.47;;
2299;SDS011;1158;48.750;9.078;2024-01-16T04:57:51;9.20;;;4.27;;
2299;SDS011;1158;48.750;9.078;2024-01-16T05:00:19;6.07;;;3.43;;
2299;SDS011;1158;48.750;9.078;2024-01-16T05:02:46;8.67;;;4.23;;
2299;SDS011;1158;48.750;9.078;2024-01-16T05:05:13;10.20;;;4.93;;
2299;SDS011;1158;48.750;9.078;2024-01-16T05:07:40;7.17;;;4.00;;
2299;SDS011;1158;48.750;9.078;2024-01-16T05:10:09;7.80;;;3.63;;
2299;SDS011;1158;48.750;9.078;2024-01-16T05:12:37;6.13;;;3.27;;
2299;SDS011;1158;48.750;9.078;2024-01-16T05:15:04;6.13;;;3.73;;
2299;SDS011;1158;48.750;9.078;2024-01-16T05:17:33;7.50;;;4.53;;
2299;SDS011;1158;48.750;9.078;2024-01-16T05:20:00;4.90;;;3.30;;
2299;SDS011;1158;48.750;9.078;2024-01-16T05:22:28;7.53;;;3.80;;
2299;SDS011;1158;48.750;9.078;2024-01-16T05:24:55;9.43;;;3.77;;
2299;SDS011;1158;48.750;9.078;2024-01-16T05:27:22;13.80;;;4.60;;
2299;SDS011;1158;48.750;9.078;2024-01-16T05:29:49;8.33;;;4.40;;
2299;SDS011;1158;48.750;9.078;2024-01-16T05:32:15;8.23;;;4.03;;
2299;SDS011;1158;48.750;9.078;2024-01-16T05:34:43;10.77;;;4.63;;
2299;SDS011;1158;48.750;9.078;2024-01-16T05:37:10;10.90;;;3.97;;
2299;SDS011;1158;48.750;9.078;2024-01-16T05:39:37;10.47;;;4.63;;
2299;SDS011;1158;48.750;9.078;2024-01-16T05:42:04;10.70;;;5.20;;
2299;SDS011;1158;48.750;9.078;2024-01-16T05:44:31;9.00;;;4.03;;
2299;SDS011;1158;48.750;9.078;2024-01-16T05:46:58;14.23;;;4.70;;
2299;SDS011;1158;48.750;9.078;2024-01-16T05:49:24;7.83;;;4.30;;
2299;SDS011;1158;48.750;9.078;2024-01-16T05:51:52;8.73;;;3.90;;
2299;SDS011;1158;48.750;9.078;2024-01-16T05:54:19;12.90;;;3.90;;
2299;SDS011;1158;48.750;9.078;2024-01-16T05:56:46;6.27;;;3.80;;
2299;SDS011;1158;48.750;9.078;2024-01-16T05:59:12;7.70;;;4.20;;
2299;SDS011;1158;48.750;9.078;2024-01-16T06:01:39;9.00;;;4.80;;
2299;SDS011;1158;48.750;9.078;2024-01-16T06:04:06;8.88;;;5.10;;
2299;SDS011;1158;48.750;9.078;2024-01-16T06:06:33;8.07;;;4.20;;
2299;SDS011;1158;48.750;9.078;2024-01-16T06:09:01;7.13;;;4.17;;
2299;SDS011;1158;48.750;9.078;2024-01-16T06:11:30;9.03;;;3.97;;
2299;SDS011;1158;48.750;9.078;2024-01-16T06:13:57;9.03;;;4.47;;
2299;SDS011;1158;48.750;9.078;2024-01-16T06:16:24;8.23;;;4.60;;
2299;SDS011;1158;48.750;9.078;2024-01-16T06:18:51;8.57;;;3.80;;
2299;SDS011;1158;48.750;9.078;2024-01-16T06:21:17;9.30;;;3.70;;
2299;SDS011;1158;48.750;9.078;2024-01-16T06:23:44;6.80;;;3.93;;
2299;SDS011;1158;48.750;9.078;2024-01-16T06:26:12;11.10;;;4.00;;
2299;SDS011;1158;48.750;9.078;2024-01-16T06:28:39;18.33;;;4.73;;
2299;SDS011;1158;48.750;9.078;2024-01-16T06:31:07;11.90;;;4.30;;
2299;SDS011;1158;48.750;9.078;2024-01-16T06:33:34;10.80;;;4.17;;
2299;SDS011;1158;48.750;9.078;2024-01-16T06:36:01;8.20;;;3.93;;
2299;SDS011;1158;48.750;9.078;2024-01-16T06:38:29;6.93;;;3.83;;
2299;SDS011;1158;48.750;9.078;2024-01-16T06:40:55;7.40;;;4.10;;
2299;SDS011;1158;48.750;9.078;2024-01-16T06:43:23;9.57;;;4.07;;
2299;SDS011;1158;48.750;9.078;2024-01-16T06:45:50;10.00;;;4.40;;
2299;SDS011;1158;48.750;9.078;2024-01-16T06:48:18;9.37;;;4.13;;
2299;SDS011;1158;48.750;9.078;2024-01-16T06:50:45;7.43;;;3.50;;
2299;SDS011;1158;48.750;9.078;2024-01-16T06:53:11;7.67;;;3.63;;
2299;SDS011;1158;48.750;9.078;2024-01-16T06:55:38;7.33;;;3.10;;
2299;SDS011;1158;48.750;9.078;2024-01-16T06:58:05;8.23;;;4.20;;
2299;SDS011;1158;48.750;9.078;2024-01-16T07:00:33;5.63;;;3.20;;
2299;SDS011;1158;48.750;9.078;2024-01-16T07:03:00;9.87;;;3.23;;
2299;SDS011;1158;48.750;9.078;2024-01-16T07:05:27;9.20;;;4.23;;
2299;SDS011;1158;48.750;9.078;2024-01-16T07:07:55;5.43;;;3.37;;
2299;SDS011;1158;48.750;9.078;2024-01-16T07:10:23;6.93;;;3.30;;
2299;SDS011;1158;48.750;9.078;2024-01-16T07:12:50;6.53;;;3.30;;
2299;SDS011;1158;48.750;9.078;2024-01-16T07:15:16;7.20;;;3.70;;
2299;SDS011;1158;48.750;9.078;2024-01-16T07:17:45;7.63;;;4.13;;
2299;SDS011;1158;48.750;9.078;2024-01-16T07:20:12;7.03;;;3.20;;
2299;SDS011;1158;48.750;9.078;2024-01-16T07:22:39;10.17;;;3.70;;
2299;SDS011;1158;48.750;9.078;2024-01-16T07:25:06;6.60;;;3.40;;
2299;SDS011;1158;48.750;9.078;2024-01-16T07:27:33;5.63;;;3.10;;
2299;SDS011;1158;48.750;9.078;2024-01-16T07:30:00;9.20;;;3.23;;
2299;SDS011;1158;48.750;9.078;2024-01-16T07:32:26;6.37;;;3.23;;
2299;SDS011;1158;48.750;9.078;2024-01-16T07:34:54;9.43;;;4.00;;
2299;SDS011;1158;48.750;9.078;2024-01-16T07:37:21;8.10;;;3.07;;
2299;SDS011;1158;48.750;9.078;2024-01-16T07:39:48;6.60;;;3.30;;
2299;SDS011;1158;48.750;9.078;2024-01-16T07:42:14;6.97;;;3.80;;
2299;SDS011;1158;48.750;9.078;2024-01-16T07:44:41;7.13;;;3.47;;
2299;SDS011;1158;48.750;9.078;2024-01-16T07:47:08;5.63;;;3.60;;
2299;SDS011;1158;48.750;9.078;2024-01-16T07:49:35;7.00;;;3.20;;
2299;SDS011;1158;48.750;9.078;2024-01-16T07:52:03;6.80;;;3.73;;
2299;SDS011;1158;48.750;9.078;2024-01-16T07:54:30;5.70;;;3.10;;
2299;SDS011;1158;48.750;9.078;2024-01-16T07:56:57;5.10;;;3.20;;
2299;SDS011;1158;48.750;9.078;2024-01-16T07:59:24;5.10;;;2.77;;
2299;SDS011;1158;48.750;9.078;2024-01-16T08:01:51;5.57;;;3.00;;
2299;SDS011;1158;48.750;9.078;2024-01-16T08:04:18;11.17;;;2.80;;
2299;SDS011;1158;48.750;9.078;2024-01-16T08:06:45;5.23;;;3.20;;
2299;SDS011;1158;48.750;9.078;2024-01-16T08:09:13;8.07;;;3.00;;
2299;SDS011;1158;48.750;9.078;2024-01-16T08:11:40;9.63;;;3.97;;
2299;SDS011;1158;48.750;9.078;2024-01-16T08:14:08;8.20;;;3.67;;
2299;SDS011;1158;48.750;9.078;2024-01-16T08:16:34;7.63;;;4.30;;
2299;SDS011;1158;48.750;9.078;2024-01-16T08:19:01;14.83;;;4.60;;
2299;SDS011;1158;48.750;9.078;2024-01-16T08:21:28;9.07;;;3.70;;
2299;SDS011;1158;48.750;9.078;2024-01-16T08:23:55;9.27;;;4.33;;
2299;SDS011;1158;48.750;9.078;2024-01-16T08:26:23;7.10;;;3.40;;
2299;SDS011;1158;48.750;9.078;2024-01-16T08:28:49;11.77;;;5.20;;
2299;SDS011;1158;48.750;9.078;2024-01-16T08:31:16;8.00;;;4.20;;
2299;SDS011;1158;48.750;9.078;2024-01-16T08:33:43;7.70;;;3.90;;
2299;SDS011;1158;48.750;9.078;2024-01-16T08:36:10;5.73;;;3.10;;
2299;SDS011;1158;48.750;9.078;2024-01-16T08:38:37;7.20;;;3.10;;
2299;SDS011;1158;48.750;9.078;2024-01-16T08:41:04;8.00;;;3.20;;
2299;SDS011;1158;48.750;9.078;2024-01-16T08:43:33;6.43;;;3.07;;
2299;SDS011;1158;48.750;9.078;2024-01-16T08:45:59;5.00;;;2.87;;
2299;SDS011;1158;48.750;9.078;2024-01-16T08:48:26;7.23;;;3.00;;
2299;SDS011;1158;48.750;9.078;2024-01-16T08:50:53;5.67;;;3.00;;
2299;SDS011;1158;48.750;9.078;2024-01-16T08:53:20;9.03;;;3.80;;
2299;SDS011;1158;48.750;9.078;2024-01-16T08:55:48;7.00;;;3.70;;
2299;SDS011;1158;48.750;9.078;2024-01-16T08:58:14;8.17;;;3.77;;
2299;SDS011;1158;48.750;9.078;2024-01-16T09:00:43;7.83;;;3.07;;
2299;SDS011;1158;48.750;9.078;2024-01-16T09:03:09;7.37;;;3.50;;
2299;SDS011;1158;48.750;9.078;2024-01-16T09:05:37;5.50;;;2.90;;
2299;SDS011;1158;48.750;9.078;2024-01-16T09:08:04;6.57;;;3.07;;
2299;SDS011;1158;48.750;9.078;2024-01-16T09:10:31;6.77;;;3.87;;
2299;SDS011;1158;48.750;9.078;2024-01-16T09:12:58;7.60;;;3.23;;
2299;SDS011;1158;48.750;9.078;2024-01-16T09:15:25;9.90;;;3.23;;
2299;SDS011;1158;48.750;9.078;2024-01-16T09:17:53;4.10;;;3.00;;
2299;SDS011;1158;48.750;9.078;2024-01-16T09:20:19;4.63;;;3.13;;
2299;SDS011;1158;48.750;9.078;2024-01-16T09:22:46;8.37;;;3.00;;
2299;SDS011;1158;48.750;9.078;2024-01-16T09:25:13;5.10;;;3.07;;
2299;SDS011;1158;48.750;9.078;2024-01-16T09:27:40;12.80;;;3.47;;
2299;SDS011;1158;48.750;9.078;2024-01-16T09:30:07;5.97;;;2.90;;
2299;SDS011;1158;48.750;9.078;2024-01-16T09:32:35;4.87;;;2.80;;
2299;SDS011;1158;48.750;9.078;2024-01-16T09:35:04;5.60;;;3.37;;
2299;SDS011;1158;48.750;9.078;2024-01-16T09:37:34;5.23;;;3.53;;
2299;SDS011;1158;48.750;9.078;2024-01-16T09:40:01;6.20;;;3.17;;
2299;SDS011;1158;48.750;9.078;2024-01-16T09:42:28;7.73;;;3.57;;
2299;SDS011;1158;48.750;9.078;2024-01-16T09:44:54;6.60;;;3.50;;
2299;SDS011;1158;48.750;9.078;2024-01-16T09:47:22;6.10;;;3.10;;
2299;SDS011;1158;48.750;9.078;2024-01-16T09:49:50;10.30;;;3.50;;
2299;SDS011;1158;48.750;9.078;2024-01-16T09:52:19;8.60;;;3.40;;
2299;SDS011;1158;48.750;9.078;2024-01-16T09:54:46;8.23;;;3.00;;
2299;SDS011;1158;48.750;9.078;2024-01-16T09:57:13;7.20;;;3.40;;
2299;SDS011;1158;48.750;9.078;2024-01-16T09:59:42;9.53;;;4.10;;
2299;SDS011;1158;48.750;9.078;2024-01-16T10:02:10;6.83;;;3.10;;
2299;SDS011;1158;48.750;9.078;2024-01-16T10:04:38;8.63;;;3.67;;
2299;SDS011;1158;48.750;9.078;2024-01-16T10:07:05;6.83;;;3.33;;
2299;SDS011;1158;48.750;9.078;2024-01-16T10:09:37;7.03;;;3.47;;
2299;SDS011;1158;48.750;9.078;2024-01-16T10:12:05;5.30;;;2.93;;
2299;SDS011;1158;48.750;9.078;2024-01-16T10:14:33;6.43;;;3.03;;
2299;SDS011;1158;48.750;9.078;2024-01-16T10:17:00;9.97;;;3.53;;
2299;SDS011;1158;48.750;9.078;2024-01-16T10:19:30;7.30;;;3.97;;
2299;SDS011;1158;48.750;9.078;2024-01-16T10:22:01;8.30;;;3.30;;
2299;SDS011;1158;48.750;9.078;2024-01-16T10:24:28;8.13;;;3.43;;
2299;SDS011;1158;48.750;9.078;2024-01-16T10:26:59;8.53;;;3.57;;
2299;SDS011;1158;48.750;9.078;2024-01-16T10:29:27;5.73;;;3.60;;
2299;SDS011;1158;48.750;9.078;2024-01-16T10:31:54;7.37;;;3.60;;
2299;SDS011;1158;48.750;9.078;2024-01-16T10:34:21;5.70;;;3.27;;
2299;SDS011;1158;48.750;9.078;2024-01-16T10:36:49;6.03;;;3.10;;
2299;SDS011;1158;48.750;9.078;2024-01-16T10:39:16;4.20;;;2.80;;
2299;SDS011;1158;48.750;9.078;2024-01-16T10:41:50;5.73;;;3.07;;
2299;SDS011;1158;48.750;9.078;2024-01-16T10:44:21;6.93;;;3.17;;
2299;SDS011;1158;48.750;9.078;2024-01-16T10:46:49;5.50;;;2.93;;
2299;SDS011;1158;48.750;9.078;2024-01-16T10:49:35;4.83;;;2.80;;
2299;SDS011;1158;48.750;9.078;2024-01-16T10:52:03;9.47;;;3.20;;
2299;SDS011;1158;48.750;9.078;2024-01-16T10:54:33;7.00;;;3.70;;
2299;SDS011;1158;48.750;9.078;2024-01-16T10:57:02;6.40;;;3.13;;
2299;SDS011;1158;48.750;9.078;2024-01-16T10:59:33;9.00;;;3.23;;
2299;SDS011;1158;48.750;9.078;2024-01-16T11:02:05;9.20;;;3.10;;
2299;SDS011;1158;48.750;9.078;2024-01-16T11:04:36;4.70;;;2.60;;
2299;SDS011;1158;48.750;9.078;2024-01-16T11:07:04;8.60;;;3.07;;
2299;SDS011;1158;48.750;9.078;2024-01-16T11:09:32;6.83;;;3.20;;
2299;SDS011;1158;48.750;9.078;2024-01-16T11:11:59;5.60;;;2.90;;
2299;SDS011;1158;48.750;9.078;2024-01-16T11:14:27;5.57;;;2.93;;
2299;SDS011;1158;48.750;9.078;2024-01-16T11:16:57;5.20;;;2.80;;
2299;SDS011;1158;48.750;9.078;2024-01-16T11:19:26;6.50;;;2.93;;
2299;SDS011;1158;48.750;9.078;2024-01-16T11:21:53;8.23;;;3.23;;
2299;SDS011;1158;48.750;9.078;2024-01-16T11:24:21;5.87;;;3.37;;
2299;SDS011;1158;48.750;9.078;2024-01-16T11:26:47;4.30;;;2.67;;
2299;SDS011;1158;48.750;9.078;2024-01-16T11:32:02;5.20;;;2.60;;
2299;SDS011;1158;48.750;9.078;2024-01-16T11:37:24;10.17;;;3.00;;
2299;SDS011;1158;48.750;9.078;2024-01-16T11:39:54;6.07;;;2.30;;
2299;SDS011;1158;48.750;9.078;2024-01-16T11:42:51;5.37;;;2.60;;
2299;SDS011;1158;48.750;9.078;2024-01-16T11:48:18;4.93;;;2.17;;
2299;SDS011;1158;48.750;9.078;2024-01-16T11:50:46;6.97;;;2.40;;
2299;SDS011;1158;48.750;9.078;2024-01-16T11:53:32;5.63;;;2.33;;
2299;SDS011;1158;48.750;9.078;2024-01-16T11:59:21;6.17;;;2.17;;
2299;SDS011;1158;48.750;9.078;2024-01-16T12:02:09;3.87;;;2.03;;
2299;SDS011;1158;48.750;9.078;2024-01-16T12:04:41;4.40;;;2.40;;
2299;SDS011;1158;48.750;9.078;2024-01-16T12:07:08;11.93;;;2.40;;
2299;SDS011;1158;48.750;9.078;2024-01-16T12:09:35;5.73;;;2.50;;
2299;SDS011;1158;48.750;9.078;2024-01-16T12:12:02;3.43;;;2.20;;
2299;SDS011;1158;48.750;9.078;2024-01-16T12:14:30;4.97;;;2.20;;
2299;SDS011;1158;48.750;9.078;2024-01-16T12:17:08;5.33;;;2.33;;
2299;SDS011;1158;48.750;9.078;2024-01-16T12:19:35;3.70;;;2.30;;
2299;SDS011;1158;48.750;9.078;2024-01-16T12:22:06;4.73;;;2.17;;
2299;SDS011;1158;48.750;9.078;2024-01-16T12:24:35;4.30;;;2.50;;
2299;SDS011;1158;48.750;9.078;2024-01-16T12:27:02;5.37;;;2.07;;
2299;SDS011;1158;48.750;9.078;2024-01-16T12:29:30;5.60;;;2.23;;
2299;SDS011;1158;48.750;9.078;2024-01-16T12:32:04;5.67;;;2.27;;
2299;SDS011;1158;48.750;9.078;2024-01-16T12:34:32;6.23;;;2.70;;
2299;SDS011;1158;48.750;9.078;2024-01-16T12:37:03;7.60;;;2.10;;
2299;SDS011;1158;48.750;9.078;2024-01-16T12:39:33;3.30;;;2.13;;
2299;SDS011;1158;48.750;9.078;2024-01-16T12:42:00;4.47;;;2.40;;
2299;SDS011;1158;48.750;9.078;2024-01-16T12:44:28;5.07;;;2.50;;
2299;SDS011;1158;48.750;9.078;2024-01-16T12:46:55;8.13;;;2.73;;
2299;SDS011;1158;48.750;9.078;2024-01-16T12:49:22;4.70;;;2.70;;
2299;SDS011;1158;48.750;9.078;2024-01-16T12:51:49;3.37;;;2.33;;
2299;SDS011;1158;48.750;9.078;2024-01-16T12:54:16;4.37;;;2.23;;
2299;SDS011;1158;48.750;9.078;2024-01-16T12:56:50;6.97;;;2.47;;
2299;SDS011;1158;48.750;9.078;2024-01-16T12:59:26;10.97;;;2.20;;
2299;SDS011;1158;48.750;9.078;2024-01-16T13:01:55;3.40;;;1.83;;
2299;SDS011;1158;48.750;9.078;2024-01-16T13:04:22;3.03;;;1.93;;
2299;SDS011;1158;48.750;9.078;2024-01-16T13:06:49;4.20;;;2.00;;
2299;SDS011;1158;48.750;9.078;2024-01-16T13:09:15;4.30;;;2.00;;
2299;SDS011;1158;48.750;9.078;2024-01-16T13:11:51;3.70;;;2.17;;
2299;SDS011;1158;48.750;9.078;2024-01-16T13:14:21;2.47;;;1.63;;
2299;SDS011;1158;48.750;9.078;2024-01-16T13:16:48;6.20;;;2.27;;
2299;SDS011;1158;48.750;9.078;2024-01-16T13:19:16;3.33;;;2.20;;
2299;SDS011;1158;48.750;9.078;2024-01-16T13:21:43;3.80;;;2.27;;
2299;SDS011;1158;48.750;9.078;2024-01-16T13:24:10;4.00;;;2.30;;
2299;SDS011;1158;48.750;9.078;2024-01-16T13:26:37;3.43;;;1.80;;
2299;SDS011;1158;48.750;9.078;2024-01-16T13:29:06;4.23;;;2.07;;
2299;SDS011;1158;48.750;9.078;2024-01-16T13:31:34;3.23;;;1.97;;
2299;SDS011;1158;48.750;9.078;2024-01-16T13:34:01;7.00;;;2.30;;
2299;SDS011;1158;48.750;9.078;2024-01-16T13:36:28;4.93;;;1.77;;
2299;SDS011;1158;48.750;9.078;2024-01-16T13:38:55;8.07;;;2.30;;
2299;SDS011;1158;48.750;9.078;2024-01-16T13:41:22;4.70;;;2.17;;
2299;SDS011;1158;48.750;9.078;2024-01-16T13:43:48;4.00;;;2.20;;
2299;SDS011;1158;48.750;9.078;2024-01-16T13:46:16;4.47;;;2.40;;
2299;SDS011;1158;48.750;9.078;2024-01-16T13:48:43;4.37;;;2.30;;
2299;SDS011;1158;48.750;9.078;2024-01-16T13:51:10;2.97;;;2.00;;
2299;SDS011;1158;48.750;9.078;2024-01-16T13:53:37;5.23;;;2.70;;
2299;SDS011;1158;48.750;9.078;2024-01-16T13:56:04;4.10;;;2.20;;
2299;SDS011;1158;48.750;9.078;2024-01-16T13:58:31;11.73;;;2.83;;
2299;SDS011;1158;48.750;9.078;2024-01-16T14:00:58;6.20;;;2.33;;
2299;SDS011;1158;48.750;9.078;2024-01-16T14:03:26;4.60;;;2.10;;
2299;SDS011;1158;48.750;9.078;2024-01-16T14:05:52;5.60;;;2.20;;
2299;SDS011;1158;48.750;9.078;2024-01-16T14:08:20;3.83;;;1.90;;
2299;SDS011;1158;48.750;9.078;2024-01-16T14:10:47;3.90;;;2.00;;
2299;SDS011;1158;48.750;9.078;2024-01-16T14:13:14;6.70;;;2.20;;
2299;SDS011;1158;48.750;9.078;2024-01-16T14:15:40;3.67;;;2.53;;
2299;SDS011;1158;48.750;9.078;2024-01-16T14:18:07;4.20;;;1.93;;
2299;SDS011;1158;48.750;9.078;2024-01-16T14:20:36;5.90;;;2.30;;
2299;SDS011;1158;48.750;9.078;2024-01-16T14:23:03;5.30;;;2.50;;
2299;SDS011;1158;48.750;9.078;2024-01-16T14:25:29;4.17;;;2.20;;
2299;SDS011;1158;48.750;9.078;2024-01-16T14:27:58;3.40;;;2.17;;
2299;SDS011;1158;48.750;9.078;2024-01-16T14:30:26;4.07;;;2.10;;
2299;SDS011;1158;48.750;9.078;2024-01-16T14:32:53;7.83;;;2.70;;
2299;SDS011;1158;48.750;9.078;2024-01-16T14:35:21;4.57;;;2.73;;
2299;SDS011;1158;48.750;9.078;2024-01-16T14:37:50;7.93;;;2.63;;
2299;SDS011;1158;48.750;9.078;2024-01-16T14:40:17;6.33;;;2.80;;
2299;SDS011;1158;48.750;9.078;2024-01-16T14:42:46;5.27;;;2.30;;
2299;SDS011;1158;48.750;9.078;2024-01-16T14:45:14;5.63;;;2.37;;
2299;SDS011;1158;48.750;9.078;2024-01-16T14:47:40;2.93;;;1.90;;
2299;SDS011;1158;48.750;9.078;2024-01-16T14:50:07;6.10;;;2.20;;
2299;SDS011;1158;48.750;9.078;2024-01-16T14:52:35;6.47;;;2.70;;
2299;SDS011;1158;48.750;9.078;2024-01-16T14:55:05;3.90;;;2.10;;
2299;SDS011;1158;48.750;9.078;2024-01-16T14:57:33;6.77;;;2.90;;
2299;SDS011;1158;48.750;9.078;2024-01-16T15:00:07;4.80;;;2.50;;
2299;SDS011;1158;48.750;9.078;2024-01-16T15:02:39;4.77;;;2.90;;
2299;SDS011;1158;48.750;9.078;2024-01-16T15:05:06;3.90;;;2.60;;
2299;SDS011;1158;48.750;9.078;2024-01-16T15:07:33;4.17;;;2.63;;
2299;SDS011;1158;48.750;9.078;2024-01-16T15:10:02;6.10;;;2.60;;
2299;SDS011;1158;48.750;9.078;2024-01-16T15:12:33;4.60;;;2.40;;
2299;SDS011;1158;48.750;9.078;2024-01-16T15:15:00;4.20;;;2.50;;
2299;SDS011;1158;48.750;9.078;2024-01-16T15:17:28;4.73;;;2.50;;
2299;SDS011;1158;48.750;9.078;2024-01-16T15:19:55;6.87;;;3.07;;
2299;SDS011;1158;48.750;9.078;2024-01-16T15:22:21;5.70;;;3.13;;
2299;SDS011;1158;48.750;9.078;2024-01-16T15:24:48;4.40;;;2.50;;
2299;SDS011;1158;48.750;9.078;2024-01-16T15:27:16;5.13;;;2.83;;